sensor_id;sensor_type;location;lat;lon;timestamp;pressure;altitude;pressure_sealevel;temperature;humidity
48644;BME280;34928;37.302;-121.984;2023-12-20T00:01:08;100024.0;;;26.25;33.21
48644;BME280;34928;37.302;-121.984;2023-12-20T00:11:13;100008.0;;;26.49;33.25
48644;BME280;34928;37.302;-121.984;2023-12-20T00:21:18;100001.0;;;26.29;33.21
48644;BME280;34928;37.302;-121.984;2023-12-20T00:31:23;99994.0;;;26.53;33.11
48644;BME280;34928;37.302;-121.984;2023-12-20T00:41:28;100000.0;;;26.30;32.95
48644;BME280;34928;37.302;-121.984;2023-12-20T00:51:33;100008.0;;;26.74;32.99
48644;BME280;34928;37.302;-121.984;2023-12-20T01:01:39;100005.0;;;26.50;32.96
48644;BME280;34928;37.302;-121.984;2023-12-20T01:11:43;100010.0;;;26.51;32.90
48644;BME280;34928;37.302;-121.984;2023-12-20T01:21:48;100017.0;;;26.29;32.84
48644;BME280;34928;37.302;-121.984;2023-12-20T01:31:52;100014.0;;;26.51;32.78
48644;BME280;34928;37.302;-121.984;2023-12-20T01:41:58;100018.0;;;26.01;33.02
48644;BME280;34928;37.302;-121.984;2023-12-20T01:52:03;100018.0;;;26.50;33.03
48644;BME280;34928;37.302;-121.984;2023-12-20T02:02:08;100019.0;;;26.52;33.11
48644;BME280;34928;37.302;-121.984;2023-12-20T02:12:13;100017.0;;;26.43;33.14
48644;BME280;34928;37.302;-121.984;2023-12-20T02:22:18;100015.0;;;26.19;32.91
48644;BME280;34928;37.302;-121.984;2023-12-20T02:32:24;100012.0;;;26.38;32.82
48644;BME280;34928;37.302;-121.984;2023-12-20T02:42:28;100006.0;;;26.35;32.77
48644;BME280;34928;37.302;-121.984;2023-12-20T02:52:33;100008.0;;;26.34;32.72
48644;BME280;34928;37.302;-121.984;2023-12-20T03:02:38;100003.0;;;26.52;32.68
48644;BME280;34928;37.302;-121.984;2023-12-20T03:12:43;99997.0;;;26.29;32.85
48644;BME280;34928;37.302;-121.984;2023-12-20T03:22:48;99998.0;;;26.04;32.90
48644;BME280;34928;37.302;-121.984;2023-12-20T03:32:53;99995.0;;;26.25;32.93
48644;BME280;34928;37.302;-121.984;2023-12-20T03:42:58;99998.0;;;26.22;32.96
48644;BME280;34928;37.302;-121.984;2023-12-20T03:53:02;99991.0;;;26.22;33.39
48644;BME280;34928;37.302;-121.984;2023-12-20T04:03:08;99987.0;;;26.23;33.84
48644;BME280;34928;37.302;-121.984;2023-12-20T04:13:12;99993.0;;;26.21;33.61
48644;BME280;34928;37.302;-121.984;2023-12-20T04:23:18;100004.0;;;26.16;33.45
48644;BME280;34928;37.302;-121.984;2023-12-20T04:33:23;100010.0;;;25.92;33.66
48644;BME280;34928;37.302;-121.984;2023-12-20T04:43:28;100009.0;;;26.12;33.51
48644;BME280;34928;37.302;-121.984;2023-12-20T04:53:33;100007.0;;;26.10;33.23
48644;BME280;34928;37.302;-121.984;2023-12-20T05:03:38;100009.0;;;26.04;33.12
48644;BME280;34928;37.302;-121.984;2023-12-20T05:13:42;100014.0;;;26.05;33.03
48644;BME280;34928;37.302;-121.984;2023-12-20T05:23:48;100018.0;;;26.24;32.90
48644;BME280;34928;37.302;-121.984;2023-12-20T05:33:53;100013.0;;;26.01;32.80
48644;BME280;34928;37.302;-121.984;2023-12-20T05:43:57;100012.0;;;25.99;32.69
48644;BME280;34928;37.302;-121.984;2023-12-20T05:54:03;100004.0;;;25.94;32.72
48644;BME280;34928;37.302;-121.984;2023-12-20T06:04:08;100002.0;;;25.93;32.72
48644;BME280;34928;37.302;-121.984;2023-12-20T06:14:13;99988.0;;;25.86;32.67
48644;BME280;34928;37.302;-121.984;2023-12-20T06:24:17;99977.0;;;25.85;32.70
48644;BME280;34928;37.302;-121.984;2023-12-20T06:34:23;99982.0;;;25.78;31.88
48644;BME280;34928;37.302;-121.984;2023-12-20T06:44:27;99972.0;;;25.70;33.30
48644;BME280;34928;37.302;-121.984;2023-12-20T06:54:33;99962.0;;;25.73;33.19
48644;BME280;34928;37.302;-121.984;2023-12-20T07:04:40;99949.0;;;25.99;32.66
48644;BME280;34928;37.302;-121.984;2023-12-20T07:14:48;99953.0;;;25.70;33.56
48644;BME280;34928;37.302;-121.984;2023-12-20T07:24:52;99936.0;;;25.74;33.80
48644;BME280;34928;37.302;-121.984;2023-12-20T07:34:59;99928.0;;;25.75;33.56
48644;BME280;34928;37.302;-121.984;2023-12-20T07:45:03;99922.0;;;25.70;34.41
48644;BME280;34928;37.302;-121.984;2023-12-20T07:55:08;99926.0;;;25.76;34.02
48644;BME280;34928;37.302;-121.984;2023-12-20T08:05:13;99910.0;;;25.79;33.80
48644;BME280;34928;37.302;-121.984;2023-12-20T08:15:18;99913.0;;;26.08;32.81
48644;BME280;34928;37.302;-121.984;2023-12-20T08:25:23;99902.0;;;25.78;33.84
48644;BME280;34928;37.302;-121.984;2023-12-20T08:35:28;99890.0;;;25.82;33.63
48644;BME280;34928;37.302;-121.984;2023-12-20T08:45:33;99884.0;;;25.84;33.46
48644;BME280;34928;37.302;-121.984;2023-12-20T08:55:38;99875.0;;;25.85;33.35
48644;BME280;34928;37.302;-121.984;2023-12-20T09:05:43;99868.0;;;26.06;33.26
48644;BME280;34928;37.302;-121.984;2023-12-20T09:15:48;99866.0;;;25.81;33.19
48644;BME280;34928;37.302;-121.984;2023-12-20T09:25:53;99861.0;;;25.80;33.17
48644;BME280;34928;37.302;-121.984;2023-12-20T09:35:58;99859.0;;;25.85;33.06
48644;BME280;34928;37.302;-121.984;2023-12-20T09:46:06;99880.0;;;26.04;33.08
48644;BME280;34928;37.302;-121.984;2023-12-20T09:56:14;99876.0;;;25.79;33.01
48644;BME280;34928;37.302;-121.984;2023-12-20T10:06:17;99873.0;;;25.78;32.93
48644;BME280;34928;37.302;-121.984;2023-12-20T10:16:26;99857.0;;;25.76;32.85
48644;BME280;34928;37.302;-121.984;2023-12-20T10:26:33;99861.0;;;25.95;32.82
48644;BME280;34928;37.302;-121.984;2023-12-20T10:36:38;99856.0;;;25.93;32.74
48644;BME280;34928;37.302;-121.984;2023-12-20T10:46:43;99856.0;;;25.69;32.70
48644;BME280;34928;37.302;-121.984;2023-12-20T10:56:50;99847.0;;;25.68;32.79
48644;BME280;34928;37.302;-121.984;2023-12-20T11:07:03;99836.0;;;25.88;32.75
48644;BME280;34928;37.302;-121.984;2023-12-20T11:17:12;99847.0;;;25.87;32.66
48644;BME280;34928;37.302;-121.984;2023-12-20T11:27:19;99837.0;;;25.86;32.61
48644;BME280;34928;37.302;-121.984;2023-12-20T11:37:30;99829.0;;;25.60;32.75
48644;BME280;34928;37.302;-121.984;2023-12-20T11:47:39;99826.0;;;25.54;32.66
48644;BME280;34928;37.302;-121.984;2023-12-20T11:57:44;99816.0;;;25.73;32.67
48644;BME280;34928;37.302;-121.984;2023-12-20T12:07:47;99806.0;;;25.48;32.63
48644;BME280;34928;37.302;-121.984;2023-12-20T12:17:54;99824.0;;;25.67;32.58
48644;BME280;34928;37.302;-121.984;2023-12-20T12:27:59;99825.0;;;25.40;32.58
48644;BME280;34928;37.302;-121.984;2023-12-20T12:38:04;99810.0;;;25.60;32.60
48644;BME280;34928;37.302;-121.984;2023-12-20T12:48:13;99818.0;;;25.83;32.54
48644;BME280;34928;37.302;-121.984;2023-12-20T12:58:19;99799.0;;;25.51;32.66
48644;BME280;34928;37.302;-121.984;2023-12-20T13:08:23;99806.0;;;25.49;32.55
48644;BME280;34928;37.302;-121.984;2023-12-20T13:18:27;99802.0;;;25.47;32.65
48644;BME280;34928;37.302;-121.984;2023-12-20T13:28:33;99808.0;;;25.37;32.75
48644;BME280;34928;37.302;-121.984;2023-12-20T13:38:38;99813.0;;;25.38;32.73
48644;BME280;34928;37.302;-121.984;2023-12-20T13:48:43;99852.0;;;25.33;32.66
48644;BME280;34928;37.302;-121.984;2023-12-20T13:58:48;99824.0;;;25.55;32.72
48644;BME280;34928;37.302;-121.984;2023-12-20T14:08:53;99854.0;;;25.26;32.70
48644;BME280;34928;37.302;-121.984;2023-12-20T14:18:58;99904.0;;;25.47;32.84
48644;BME280;34928;37.302;-121.984;2023-12-20T14:29:03;99966.0;;;25.45;32.52
48644;BME280;34928;37.302;-121.984;2023-12-20T14:39:08;99945.0;;;25.46;33.59
48644;BME280;34928;37.302;-121.984;2023-12-20T14:49:13;99917.0;;;25.48;32.76
48644;BME280;34928;37.302;-121.984;2023-12-20T14:59:18;99957.0;;;25.50;33.93
48644;BME280;34928;37.302;-121.984;2023-12-20T15:09:23;99978.0;;;25.35;32.64
48644;BME280;34928;37.302;-121.984;2023-12-20T15:19:28;99958.0;;;25.56;34.24
48644;BME280;34928;37.302;-121.984;2023-12-20T15:29:33;99951.0;;;25.62;34.99
48644;BME280;34928;37.302;-121.984;2023-12-20T15:39:38;99945.0;;;25.45;34.51
48644;BME280;34928;37.302;-121.984;2023-12-20T15:49:43;99949.0;;;25.70;34.16
48644;BME280;34928;37.302;-121.984;2023-12-20T15:59:48;99947.0;;;25.73;33.75
48644;BME280;34928;37.302;-121.984;2023-12-20T16:09:53;99996.0;;;25.49;33.65
48644;BME280;34928;37.302;-121.984;2023-12-20T16:19:58;100036.0;;;25.28;33.35
48644;BME280;34928;37.302;-121.984;2023-12-20T16:30:04;100041.0;;;25.77;33.14
48644;BME280;34928;37.302;-121.984;2023-12-20T16:40:09;100074.0;;;25.51;32.97
48644;BME280;34928;37.302;-121.984;2023-12-20T16:50:13;100118.0;;;25.47;32.90
48644;BME280;34928;37.302;-121.984;2023-12-20T17:00:18;100081.0;;;25.23;32.79
48644;BME280;34928;37.302;-121.984;2023-12-20T17:10:23;100123.0;;;25.21;32.69
48644;BME280;34928;37.302;-121.984;2023-12-20T17:20:28;100173.0;;;25.41;32.59
48644;BME280;34928;37.302;-121.984;2023-12-20T17:30:32;100194.0;;;25.37;32.50
48644;BME280;34928;37.302;-121.984;2023-12-20T17:40:38;100199.0;;;25.35;32.40
48644;BME280;34928;37.302;-121.984;2023-12-20T17:50:43;100207.0;;;25.58;32.29
48644;BME280;34928;37.302;-121.984;2023-12-20T18:00:47;100188.0;;;25.28;32.22
48644;BME280;34928;37.302;-121.984;2023-12-20T18:10:53;100163.0;;;25.26;32.16
48644;BME280;34928;37.302;-121.984;2023-12-20T18:20:58;100181.0;;;25.22;32.11
48644;BME280;34928;37.302;-121.984;2023-12-20T18:31:03;100189.0;;;25.44;32.08
48644;BME280;34928;37.302;-121.984;2023-12-20T18:41:08;100170.0;;;25.40;32.04
48644;BME280;34928;37.302;-121.984;2023-12-20T18:51:13;100169.0;;;25.37;31.99
48644;BME280;34928;37.302;-121.984;2023-12-20T19:01:19;100164.0;;;25.33;31.99
48644;BME280;34928;37.302;-121.984;2023-12-20T19:11:23;100169.0;;;25.28;31.95
48644;BME280;34928;37.302;-121.984;2023-12-20T19:21:28;100137.0;;;24.99;31.89
48644;BME280;34928;37.302;-121.984;2023-12-20T19:31:32;100106.0;;;25.23;31.84
48644;BME280;34928;37.302;-121.984;2023-12-20T19:41:38;100111.0;;;25.43;31.79
48644;BME280;34928;37.302;-121.984;2023-12-20T19:51:44;100112.0;;;25.16;31.77
48644;BME280;34928;37.302;-121.984;2023-12-20T20:01:48;100096.0;;;25.14;31.76
48644;BME280;34928;37.302;-121.984;2023-12-20T20:11:53;100109.0;;;25.09;31.81
48644;BME280;34928;37.302;-121.984;2023-12-20T20:21:58;100112.0;;;25.04;31.81
48644;BME280;34928;37.302;-121.984;2023-12-20T20:32:03;100103.0;;;25.02;31.88
48644;BME280;34928;37.302;-121.984;2023-12-20T20:42:08;100116.0;;;25.01;31.86
48644;BME280;34928;37.302;-121.984;2023-12-20T20:52:12;100102.0;;;24.98;31.90
48644;BME280;34928;37.302;-121.984;2023-12-20T21:02:18;100094.0;;;25.19;31.87
48644;BME280;34928;37.302;-121.984;2023-12-20T21:12:23;100096.0;;;24.95;31.96
48644;BME280;34928;37.302;-121.984;2023-12-20T21:22:28;100103.0;;;24.94;31.99
48644;BME280;34928;37.302;-121.984;2023-12-20T21:32:32;100084.0;;;24.92;32.10
48644;BME280;34928;37.302;-121.984;2023-12-20T21:42:37;100085.0;;;24.92;32.14
48644;BME280;34928;37.302;-121.984;2023-12-20T21:52:43;100090.0;;;24.93;32.22
48644;BME280;34928;37.302;-121.984;2023-12-20T22:02:48;100082.0;;;24.94;32.22
48644;BME280;34928;37.302;-121.984;2023-12-20T22:12:53;100084.0;;;24.95;32.20
48644;BME280;34928;37.302;-121.984;2023-12-20T22:22:58;100078.0;;;24.94;32.16
48644;BME280;34928;37.302;-121.984;2023-12-20T22:33:02;100089.0;;;24.94;32.11
48644;BME280;34928;37.302;-121.984;2023-12-20T22:43:08;100103.0;;;24.93;32.11
48644;BME280;34928;37.302;-121.984;2023-12-20T22:53:13;100106.0;;;25.14;32.07
48644;BME280;34928;37.302;-121.984;2023-12-20T23:03:18;100124.0;;;24.92;32.03
48644;BME280;34928;37.302;-121.984;2023-12-20T23:13:23;100117.0;;;24.92;31.99
48644;BME280;34928;37.302;-121.984;2023-12-20T23:23:28;100131.0;;;24.95;31.90
48644;BME280;34928;37.302;-121.984;2023-12-20T23:33:33;100156.0;;;24.87;31.99
48644;BME280;34928;37.302;-121.984;2023-12-20T23:43:37;100175.0;;;24.86;32.05
48644;BME280;34928;37.302;-121.984;2023-12-20T23:53:43;100182.0;;;24.77;32.37
